Página principal
METAR-TAF:

METAR-TAF

Aeroportos :

Yap, Micronésia

latitude: 09-29N, longitude: 138-05E, altura: 28 m

Observação actual do tempo

O boletim foi feito há 57 minutos, às 01:50 UTC
Vento 8 kt de este
Temperatura 31°C
Humidade 66%
Pressão 1012 hPa
Visibilidade: 19.3 km
Nuvens dispersasa uma altura de 1600 ft
Nuvens fragmentadasa uma altura de 13000 ft
Encobertoa uma altura de 30000 ft

METAR: PTYA 190150Z 08008KT 12SM SCT016 BKN130 OVC300 31/24 A2987 RMK SLP115 T03080244

Hora: 12:47 (02:47 UTC)

Previsão

O boletim foi feito há 3 horas e 15 minutos, às 23:32 UTC
Previsão válida de 19 às 00 UTC a 19 às 24 UTC
Vento 10 kt de este
Visibilidade: 10 km
Nuvens dispersasa uma altura de 1600 ft
Nuvens dispersasa uma altura de 13000 ft

TAF: PTYA 182332Z 1900/1924 08010KT P6SM SCT016 SCT130

Observações e previsões do tempo de mais de 4000 aeroportos (mensagens METAR e TAF).

As estações disponíveis são os pontos amarelos e vermelhos sobre o mapa.

Mova o rato sobre o mapa para ver o nome da estação.

Depois clique no ponto para visualizar as observações e previsões meteorológicas.

Para alterar o mapa : clique nos botões verdes com uma cruz preta para aumentar o zoom; no botão verde com uma pitada de zoom; ou nas setas verdes para mapas adjacentes.


METAR-TAF: